createdAt,value
2022-11-20T10:58:58.682Z,6.53
2022-11-20T11:01:25.379Z,10.65
2022-11-20T11:03:52.038Z,13.48
2022-11-20T11:06:18.705Z,8.60
2022-11-20T11:08:45.536Z,9.70
2022-11-20T11:11:12.188Z,9.43
2022-11-20T11:13:38.838Z,8.45
2022-11-20T11:16:05.674Z,8.63
2022-11-20T11:18:32.288Z,11.40
2022-11-20T11:20:58.924Z,9.30
2022-11-20T11:23:25.758Z,7.78
2022-11-20T11:25:52.514Z,9.93
2022-11-20T11:28:19.248Z,13.25
2022-11-20T11:30:45.904Z,9.05
2022-11-20T11:33:12.530Z,12.20
2022-11-20T11:35:39.189Z,10.50
2022-11-20T11:38:06.091Z,12.23
2022-11-20T11:40:32.742Z,8.90
2022-11-20T11:42:59.430Z,14.80
2022-11-20T11:45:26.067Z,12.07
2022-11-20T11:47:52.733Z,10.80
2022-11-20T11:50:19.398Z,12.20
2022-11-20T11:52:46.028Z,13.45
2022-11-20T11:55:12.660Z,12.57
2022-11-20T11:57:39.306Z,17.20
2022-11-20T12:00:06.198Z,10.75
2022-11-20T12:02:32.883Z,12.10
2022-11-20T12:04:59.564Z,18.80
2022-11-20T12:07:45.626Z,22.23
2022-11-20T12:10:13.242Z,20.33
2022-11-20T12:12:39.870Z,23.40
2022-11-20T12:15:06.723Z,24.30
2022-11-20T12:17:33.358Z,18.17
2022-11-20T12:19:59.983Z,18.73
2022-11-20T12:22:26.622Z,15.77
2022-11-20T12:24:53.482Z,22.05
2022-11-20T12:27:20.145Z,16.02
2022-11-20T12:29:46.813Z,16.90
2022-11-20T12:32:13.683Z,20.33
2022-11-20T12:34:41.070Z,19.17
2022-11-20T12:37:07.728Z,15.48
2022-11-20T12:39:34.418Z,13.32
2022-11-20T12:42:01.050Z,12.05
2022-11-20T12:44:27.924Z,11.85
2022-11-20T12:46:54.589Z,16.60
2022-11-20T12:49:21.503Z,11.65
2022-11-20T12:51:48.425Z,13.38
2022-11-20T12:54:15.064Z,13.15
2022-11-20T12:56:41.910Z,15.55
2022-11-20T12:59:08.554Z,9.83
2022-11-20T13:01:35.413Z,11.95
2022-11-20T13:04:06.408Z,11.55
2022-11-20T13:06:35.876Z,13.00
2022-11-20T13:09:02.518Z,9.02
2022-11-20T13:11:29.164Z,15.27
2022-11-20T13:13:56.023Z,11.80
2022-11-20T13:16:22.688Z,8.02
2022-11-20T13:18:49.551Z,11.38
2022-11-20T13:21:16.197Z,9.27
2022-11-20T13:23:42.817Z,9.10
2022-11-20T13:26:09.665Z,8.82
2022-11-20T13:28:36.497Z,8.18
2022-11-20T13:31:03.118Z,9.30
2022-11-20T13:33:29.766Z,7.88
2022-11-20T13:35:56.640Z,7.90
2022-11-20T13:38:23.260Z,9.20
2022-11-20T13:40:49.906Z,10.45
2022-11-20T13:43:16.558Z,7.25
2022-11-20T13:45:43.406Z,9.63
2022-11-20T13:48:10.028Z,8.57
2022-11-20T13:50:36.673Z,9.68
2022-11-20T13:53:03.303Z,7.78
2022-11-20T13:55:29.950Z,7.22
2022-11-20T13:57:56.820Z,4.75
2022-11-20T14:00:24.392Z,7.90
2022-11-20T14:02:51.074Z,5.90
2022-11-20T14:05:17.723Z,7.18
2022-11-20T14:07:44.424Z,8.77
2022-11-20T14:10:11.078Z,7.82
2022-11-20T14:12:37.709Z,6.67
2022-11-20T14:15:04.538Z,6.50
2022-11-20T14:17:31.173Z,7.18
2022-11-20T14:19:57.831Z,6.65
2022-11-20T14:22:24.472Z,9.57
2022-11-20T14:24:51.119Z,6.37
2022-11-20T14:27:17.768Z,11.02
2022-11-20T14:29:44.595Z,57.28
2022-11-20T14:32:11.427Z,30.08
2022-11-20T14:34:38.075Z,31.83
2022-11-20T14:37:04.933Z,24.10
2022-11-20T14:39:31.596Z,31.85
2022-11-20T14:41:58.436Z,19.27
2022-11-20T14:44:25.310Z,22.67
2022-11-20T14:46:52.343Z,24.05
2022-11-20T14:49:19.202Z,16.93
2022-11-20T14:51:46.081Z,17.40
2022-11-20T14:54:12.715Z,20.00
2022-11-20T14:56:39.581Z,17.35
2022-11-20T14:59:06.472Z,24.48
2022-11-20T15:01:33.126Z,16.47
2022-11-20T15:03:59.830Z,18.65
2022-11-20T15:06:26.628Z,25.77
2022-11-20T15:08:53.262Z,18.23
